createdAt,value
2022-08-14T00:00:14.119Z,2.17
2022-08-14T00:02:42.352Z,2.40
2022-08-14T00:05:14.424Z,2.25
2022-08-14T00:07:42.282Z,1.85
2022-08-14T00:10:52.972Z,2.08
2022-08-14T00:13:01.602Z,2.25
2022-08-14T00:15:44.241Z,2.20
2022-08-14T00:18:30.505Z,1.90
2022-08-14T00:21:11.405Z,2.00
2022-08-14T00:23:39.616Z,1.90
2022-08-14T00:26:21.437Z,2.35
2022-08-14T00:31:19.069Z,2.13
2022-08-14T00:33:51.955Z,2.30
2022-08-14T00:36:39.043Z,2.22
2022-08-14T00:39:09.856Z,2.28
2022-08-14T00:41:39.435Z,2.10
2022-08-14T00:46:38.514Z,2.42
2022-08-14T00:49:06.235Z,2.50
2022-08-14T00:51:38.266Z,2.30
2022-08-14T00:54:11.251Z,2.30
2022-08-14T00:56:51.657Z,2.47
2022-08-14T00:59:24.626Z,2.22
2022-08-14T01:01:54.892Z,2.15
2022-08-14T01:04:51.577Z,2.00
2022-08-14T01:07:11.930Z,2.38
2022-08-14T01:09:42.699Z,2.10
2022-08-14T01:12:13.182Z,2.38
2022-08-14T01:14:55.406Z,2.35
2022-08-14T01:17:49.520Z,2.60
2022-08-14T01:20:35.449Z,2.28
2022-08-14T01:23:10.336Z,2.70
2022-08-14T01:25:46.106Z,2.38
2022-08-14T01:28:46.443Z,2.50
2022-08-14T01:31:02.363Z,2.40
2022-08-14T01:33:31.088Z,2.00
2022-08-14T01:36:23.255Z,2.42
2022-08-14T01:41:29.735Z,2.40
2022-08-14T01:44:01.615Z,2.40
2022-08-14T01:46:33.278Z,2.08
2022-08-14T01:49:06.689Z,2.25
2022-08-14T01:51:36.427Z,2.40
2022-08-14T01:54:09.599Z,2.22
2022-08-14T01:56:39.406Z,2.13
2022-08-14T01:59:09.816Z,1.90
2022-08-14T02:01:42.028Z,2.00
2022-08-14T02:04:55.901Z,2.30
2022-08-14T02:07:15.759Z,2.30
2022-08-14T02:09:45.014Z,2.00
2022-08-14T02:12:26.544Z,2.28
2022-08-14T02:15:00.694Z,2.08
2022-08-14T02:17:31.038Z,2.45
2022-08-14T02:19:59.286Z,2.10
2022-08-14T02:22:32.503Z,2.10
2022-08-14T02:25:02.318Z,2.10
2022-08-14T02:28:22.026Z,2.05
2022-08-14T02:30:17.931Z,2.25
2022-08-14T02:32:45.897Z,2.30
2022-08-14T02:35:18.381Z,2.53
2022-08-14T02:37:48.246Z,2.67
2022-08-14T02:40:18.984Z,2.65
2022-08-14T02:42:55.243Z,2.10
2022-08-14T02:45:33.339Z,2.40
2022-08-14T02:48:10.659Z,2.55
2022-08-14T02:50:55.296Z,2.60
2022-08-14T02:53:22.882Z,2.40
2022-08-14T02:55:52.479Z,2.35
2022-08-14T02:58:30.708Z,2.25
2022-08-14T03:00:58.992Z,2.60
2022-08-14T03:03:26.928Z,2.55
2022-08-14T03:05:55.588Z,2.55
2022-08-14T03:08:23.324Z,3.10
2022-08-14T03:10:54.492Z,2.38
2022-08-14T03:13:25.242Z,2.22
2022-08-14T03:15:55.510Z,2.92
2022-08-14T03:18:31.961Z,2.75
2022-08-14T03:21:03.105Z,2.47
2022-08-14T03:23:36.458Z,2.10
2022-08-14T03:26:13.058Z,2.45
2022-08-14T03:28:49.402Z,3.00
2022-08-14T03:31:22.064Z,3.55
2022-08-14T03:33:54.476Z,3.28
2022-08-14T03:37:51.186Z,2.30
2022-08-14T03:39:22.012Z,2.35
2022-08-14T03:41:55.014Z,2.40
2022-08-14T03:45:25.503Z,2.00
2022-08-14T03:47:12.044Z,2.50
2022-08-14T03:49:42.381Z,2.42
2022-08-14T03:52:38.284Z,2.90
2022-08-14T03:55:00.154Z,2.53
2022-08-14T03:57:32.385Z,2.80
2022-08-14T04:00:06.347Z,2.97
2022-08-14T04:02:37.447Z,2.75
2022-08-14T04:05:12.278Z,3.78
2022-08-14T04:08:00.389Z,2.90
2022-08-14T04:10:32.081Z,2.67
2022-08-14T04:13:03.504Z,2.75
2022-08-14T04:15:55.666Z,2.85
2022-08-14T04:18:20.351Z,2.85
2022-08-14T04:20:54.433Z,2.67
2022-08-14T04:23:29.344Z,3.15
2022-08-14T04:26:01.360Z,3.03
2022-08-14T04:29:01.528Z,2.80
2022-08-14T04:31:24.776Z,3.20
2022-08-14T04:34:07.948Z,3.28
2022-08-14T04:36:57.841Z,2.65
2022-08-14T04:39:46.839Z,3.45
2022-08-14T04:42:32.249Z,2.88
2022-08-14T04:45:01.403Z,3.13
2022-08-14T04:47:46.902Z,2.88
2022-08-14T04:50:33.910Z,3.90
2022-08-14T04:53:08.786Z,3.20
2022-08-14T04:55:38.658Z,3.15
2022-08-14T04:58:06.550Z,3.25
2022-08-14T05:00:35.426Z,3.28
2022-08-14T05:03:07.300Z,3.60
2022-08-14T05:05:35.225Z,3.58
2022-08-14T05:08:12.221Z,3.47
2022-08-14T05:11:02.573Z,3.97
2022-08-14T05:13:42.282Z,3.85
2022-08-14T05:16:21.245Z,3.53
2022-08-14T05:19:18.182Z,3.57
2022-08-14T05:21:58.293Z,3.70
2022-08-14T05:24:24.935Z,3.67
2022-08-14T05:26:52.553Z,3.80
2022-08-14T05:29:21.069Z,4.03
2022-08-14T05:31:55.900Z,3.83
2022-08-14T05:34:31.638Z,4.60
2022-08-14T05:37:02.299Z,4.07
2022-08-14T05:39:31.252Z,4.20
2022-08-14T05:42:00.577Z,4.40
2022-08-14T05:44:30.697Z,4.18
2022-08-14T05:46:59.976Z,3.65
2022-08-14T05:49:33.541Z,3.70
2022-08-14T05:52:02.381Z,4.45
2022-08-14T05:54:35.544Z,4.00
2022-08-14T05:57:04.378Z,4.25
2022-08-14T05:59:38.706Z,3.75
2022-08-14T06:02:10.129Z,4.22
2022-08-14T06:04:38.096Z,4.13
2022-08-14T06:07:06.150Z,4.50
2022-08-14T06:09:35.940Z,4.25
2022-08-14T06:12:09.227Z,4.28
2022-08-14T06:14:36.804Z,4.18
2022-08-14T06:17:05.541Z,3.95
2022-08-14T06:19:34.401Z,4.30
2022-08-14T06:22:02.214Z,4.22
2022-08-14T06:24:34.754Z,4.57
2022-08-14T06:27:04.754Z,4.43
2022-08-14T06:29:35.339Z,3.85
2022-08-14T06:32:36.456Z,3.78
2022-08-14T06:35:03.966Z,4.60
2022-08-14T06:37:43.573Z,4.38
2022-08-14T06:40:25.668Z,4.55
2022-08-14T06:42:56.628Z,3.88
2022-08-14T06:45:28.092Z,4.43
2022-08-14T06:47:58.554Z,3.90
2022-08-14T06:50:30.821Z,4.35
2022-08-14T06:53:01.071Z,3.75
2022-08-14T06:55:29.382Z,4.47
2022-08-14T06:57:58.149Z,3.83
2022-08-14T07:00:30.914Z,4.60
2022-08-14T07:03:17.704Z,4.28
2022-08-14T07:05:55.922Z,4.18
2022-08-14T07:08:29.749Z,3.83
2022-08-14T07:11:00.976Z,3.28
2022-08-14T07:13:30.547Z,3.70
2022-08-14T07:16:05.361Z,3.70
2022-08-14T07:18:35.848Z,3.72
2022-08-14T07:21:07.260Z,4.47
2022-08-14T07:23:35.191Z,4.35
2022-08-14T07:26:10.108Z,3.75
2022-08-14T07:28:43.576Z,4.65
2022-08-14T07:31:13.361Z,3.85
2022-08-14T07:33:50.726Z,3.42
2022-08-14T07:36:27.359Z,3.47
2022-08-14T07:38:58.981Z,2.92
2022-08-14T07:41:31.144Z,3.03
2022-08-14T07:44:22.570Z,2.67
2022-08-14T07:46:49.806Z,3.13
2022-08-14T07:49:17.766Z,3.33
2022-08-14T07:51:49.344Z,2.90
2022-08-14T07:54:22.896Z,2.90
2022-08-14T07:56:56.926Z,3.05
2022-08-14T07:59:41.594Z,3.05
2022-08-14T08:02:19.498Z,2.80
2022-08-14T08:04:54.524Z,2.67
2022-08-14T08:07:29.550Z,2.60
2022-08-14T08:09:59.658Z,2.60
2022-08-14T08:12:32.362Z,2.78
2022-08-14T08:15:07.263Z,2.47
2022-08-14T08:17:38.200Z,2.47
2022-08-14T08:20:16.833Z,2.40
2022-08-14T08:22:55.807Z,2.58
2022-08-14T08:25:24.679Z,2.75
2022-08-14T08:27:59.799Z,2.60
2022-08-14T08:30:28.964Z,2.50
2022-08-14T08:32:58.659Z,2.20
2022-08-14T08:35:46.231Z,2.45
2022-08-14T08:39:18.019Z,2.10
2022-08-14T08:41:11.217Z,1.97
2022-08-14T08:43:45.796Z,2.30
2022-08-14T08:46:23.429Z,2.28
2022-08-14T08:51:25.275Z,2.17
2022-08-14T08:54:04.946Z,2.15
2022-08-14T08:56:40.557Z,2.17
2022-08-14T08:59:20.982Z,2.30
2022-08-14T09:01:57.687Z,2.20
2022-08-14T09:04:26.256Z,2.20
2022-08-14T09:07:09.232Z,2.65
2022-08-14T09:09:54.225Z,2.15
2022-08-14T09:12:31.855Z,2.47
2022-08-14T09:15:02.024Z,1.88
2022-08-14T09:17:29.963Z,2.22
2022-08-14T09:20:01.914Z,2.22
2022-08-14T09:22:34.992Z,2.30
2022-08-14T09:25:07.045Z,2.20
2022-08-14T09:27:35.346Z,2.33
2022-08-14T09:30:31.655Z,2.13
2022-08-14T09:33:11.114Z,2.40
2022-08-14T09:35:56.714Z,1.90
2022-08-14T09:38:33.989Z,2.33
2022-08-14T09:41:12.736Z,2.38
2022-08-14T09:43:49.019Z,2.30
2022-08-14T09:46:21.317Z,2.67
2022-08-14T09:48:59.291Z,2.28
2022-08-14T09:51:32.585Z,2.30
2022-08-14T09:54:18.711Z,2.33
2022-08-14T09:56:57.139Z,2.33
2022-08-14T09:59:28.353Z,2.30
2022-08-14T10:02:00.000Z,2.38
2022-08-14T10:04:33.179Z,2.13
2022-08-14T10:07:03.737Z,2.65
2022-08-14T10:09:35.170Z,1.85
2022-08-14T10:12:06.845Z,2.10
2022-08-14T10:14:53.331Z,2.47
2022-08-14T10:17:26.783Z,2.58
2022-08-14T10:19:55.732Z,2.40
2022-08-14T10:23:12.445Z,2.17
2022-08-14T10:25:17.733Z,2.10
2022-08-14T10:27:50.023Z,2.38
2022-08-14T10:30:25.564Z,2.17
2022-08-14T10:32:55.518Z,1.83
2022-08-14T10:35:23.408Z,2.08
2022-08-14T10:38:02.437Z,2.10
2022-08-14T10:40:43.517Z,2.17
2022-08-14T10:43:22.892Z,2.38
2022-08-14T10:46:21.756Z,1.95
2022-08-14T10:48:58.171Z,2.40
2022-08-14T10:51:26.859Z,2.10
2022-08-14T10:56:35.156Z,2.42
2022-08-14T10:59:06.051Z,1.90
2022-08-14T11:01:41.688Z,2.08
2022-08-14T11:04:30.185Z,2.38
2022-08-14T11:06:59.294Z,2.40
2022-08-14T11:09:32.278Z,2.10
2022-08-14T11:12:44.092Z,2.30
2022-08-14T11:14:59.103Z,2.30
2022-08-14T11:17:28.586Z,2.00
2022-08-14T11:20:01.158Z,2.40
2022-08-14T11:22:56.016Z,2.10
2022-08-14T11:25:20.493Z,2.25
2022-08-14T11:27:50.816Z,1.85
2022-08-14T11:30:49.341Z,1.90
2022-08-14T11:33:09.601Z,2.30
2022-08-14T11:35:47.453Z,2.45
2022-08-14T11:38:17.227Z,2.38
2022-08-14T11:40:46.661Z,2.30
2022-08-14T11:43:14.879Z,2.45
2022-08-14T11:45:48.675Z,2.17
2022-08-14T11:49:03.016Z,2.47
2022-08-14T11:51:13.732Z,2.20
2022-08-14T11:56:29.792Z,2.30
2022-08-14T11:59:03.691Z,1.92
2022-08-14T12:01:41.359Z,2.38
2022-08-14T12:04:21.848Z,2.50
2022-08-14T12:07:32.775Z,2.43
2022-08-14T12:10:42.891Z,2.38
2022-08-14T12:13:55.973Z,2.08
2022-08-14T12:17:24.905Z,2.22
2022-08-14T12:20:10.193Z,2.05
2022-08-14T12:23:02.180Z,2.47
2022-08-14T12:41:28.047Z,2.20
2022-08-14T12:44:54.489Z,2.38
2022-08-14T12:47:38.252Z,2.10
2022-08-14T12:54:00.010Z,2.33
2022-08-14T12:59:37.273Z,2.30
2022-08-14T13:02:47.824Z,2.20
2022-08-14T13:05:27.520Z,2.13
2022-08-14T13:08:00.891Z,2.20
2022-08-14T13:10:52.190Z,1.98
2022-08-14T13:13:50.241Z,2.10
2022-08-14T13:16:38.151Z,2.00
2022-08-14T13:19:14.538Z,2.17
2022-08-14T13:22:05.686Z,1.83
2022-08-14T13:24:40.563Z,2.30
2022-08-14T13:27:18.780Z,2.10
2022-08-14T13:30:04.200Z,1.75
2022-08-14T13:36:03.927Z,2.08
2022-08-14T13:38:48.116Z,2.38
2022-08-14T13:41:31.671Z,2.00
2022-08-14T13:44:07.944Z,2.30
2022-08-14T13:46:55.128Z,2.30
2022-08-14T13:49:33.028Z,2.47
2022-08-14T13:52:48.308Z,1.70
2022-08-14T13:55:10.023Z,2.38
2022-08-14T13:58:03.574Z,2.17
2022-08-14T14:00:52.957Z,1.80
2022-08-14T14:03:59.121Z,1.80
2022-08-14T14:06:37.163Z,1.88
2022-08-14T14:09:13.121Z,1.90
2022-08-14T14:11:57.091Z,1.95
2022-08-14T14:14:51.524Z,2.13
2022-08-14T14:20:34.148Z,1.42
2022-08-14T14:23:17.645Z,1.88
2022-08-14T14:25:56.956Z,1.80
2022-08-14T14:28:46.220Z,2.55
2022-08-14T14:31:22.711Z,2.17
2022-08-14T14:34:19.908Z,2.15
2022-08-14T14:37:07.499Z,1.83
2022-08-14T14:40:54.561Z,2.20
2022-08-14T14:42:48.281Z,2.22
2022-08-14T14:45:25.957Z,2.05
2022-08-14T14:48:19.448Z,1.95
2022-08-14T14:50:57.822Z,1.85
2022-08-14T14:53:44.814Z,1.70
2022-08-14T14:56:49.377Z,1.90
2022-08-14T14:59:13.417Z,1.98
2022-08-14T15:01:50.249Z,2.22
2022-08-14T15:04:28.239Z,2.00
2022-08-14T15:07:01.997Z,2.10
2022-08-14T15:09:37.296Z,1.95
2022-08-14T15:12:34.477Z,2.42
2022-08-14T15:18:02.030Z,1.73
2022-08-14T15:20:36.629Z,1.98
2022-08-14T15:23:12.678Z,2.03
2022-08-14T15:26:01.376Z,2.15
2022-08-14T15:31:15.943Z,1.90
2022-08-14T15:34:44.656Z,2.08
2022-08-14T15:36:55.618Z,1.98
2022-08-14T15:39:34.012Z,1.90
2022-08-14T15:42:18.840Z,2.25
2022-08-14T15:45:01.296Z,2.60
2022-08-14T16:45:16.173Z,1.88
2022-08-14T16:47:50.734Z,1.90
2022-08-14T16:50:43.019Z,1.27
2022-08-14T16:53:07.315Z,1.50
2022-08-14T16:55:51.012Z,1.70
2022-08-14T16:58:29.898Z,1.90
2022-08-14T17:01:25.093Z,1.80
2022-08-14T17:04:00.295Z,2.00
2022-08-14T17:06:46.155Z,1.60
2022-08-14T17:09:46.556Z,1.90
2022-08-14T17:12:28.586Z,2.00
2022-08-14T17:15:27.670Z,2.05
2022-08-14T17:17:58.399Z,1.20
2022-08-14T17:21:00.201Z,1.60
2022-08-14T17:23:31.486Z,1.90
2022-08-14T17:25:59.877Z,2.25
2022-08-14T17:31:10.287Z,1.90
2022-08-14T17:33:59.559Z,1.73
2022-08-14T17:36:27.405Z,2.30
2022-08-14T17:39:00.421Z,1.80
2022-08-14T17:41:37.604Z,1.80
2022-08-14T17:44:34.170Z,1.80
2022-08-14T17:47:14.600Z,2.65
2022-08-14T17:49:47.186Z,2.90
2022-08-14T17:52:34.973Z,2.38
2022-08-14T17:55:05.659Z,2.78
2022-08-14T17:57:35.397Z,3.35
2022-08-14T18:00:11.903Z,2.90
2022-08-14T18:02:51.069Z,2.60
2022-08-14T18:05:23.430Z,2.70
2022-08-14T18:10:55.522Z,2.25
2022-08-14T18:13:51.323Z,2.42
2022-08-14T18:16:19.666Z,2.55
2022-08-14T18:18:50.042Z,3.33
2022-08-14T18:21:40.616Z,2.83
2022-08-14T18:24:28.357Z,2.85
2022-08-14T18:27:01.812Z,2.70
2022-08-14T18:29:31.956Z,2.60
2022-08-14T18:32:00.198Z,2.35
2022-08-14T18:34:37.552Z,2.35
2022-08-14T18:37:17.396Z,2.47
2022-08-14T18:40:03.567Z,2.63
2022-08-14T18:42:44.433Z,2.67
2022-08-14T18:45:15.919Z,2.55
2022-08-14T18:50:48.363Z,2.35
2022-08-14T18:53:16.995Z,2.67
2022-08-14T18:55:54.146Z,2.53
2022-08-14T18:58:34.174Z,2.70
2022-08-14T19:01:04.481Z,2.55
2022-08-14T19:03:58.381Z,2.60
2022-08-14T19:06:43.413Z,2.28
2022-08-14T19:09:50.300Z,2.53
2022-08-14T19:12:56.659Z,2.78
2022-08-14T19:15:27.286Z,2.95
2022-08-14T19:18:14.266Z,2.72
2022-08-14T19:20:52.927Z,2.88
2022-08-14T19:23:42.903Z,2.88
2022-08-14T19:26:34.083Z,2.85
2022-08-14T19:29:23.527Z,2.42
2022-08-14T19:31:55.648Z,2.75
2022-08-14T19:34:40.604Z,2.75
2022-08-14T19:37:47.478Z,2.70
2022-08-14T19:40:29.798Z,2.85
2022-08-14T19:42:59.292Z,2.67
2022-08-14T19:45:27.721Z,2.78
2022-08-14T19:47:57.836Z,3.08
2022-08-14T19:50:39.022Z,2.90
2022-08-14T19:53:17.381Z,2.78
2022-08-14T19:55:59.008Z,2.90
2022-08-14T19:58:38.945Z,2.70
2022-08-14T20:01:36.549Z,2.67
2022-08-14T20:04:44.912Z,3.45
2022-08-14T20:06:56.987Z,2.90
2022-08-14T20:11:03.052Z,3.10
2022-08-14T20:12:34.654Z,2.65
2022-08-14T20:15:08.719Z,3.50
2022-08-14T20:17:40.400Z,2.75
2022-08-14T20:20:21.007Z,3.15
2022-08-14T20:23:11.260Z,2.90
2022-08-14T20:25:45.394Z,3.60
2022-08-14T20:28:35.506Z,5.55
2022-08-14T20:31:15.790Z,3.60
2022-08-14T20:34:06.172Z,2.97
2022-08-14T20:36:38.564Z,3.30
2022-08-14T20:41:44.723Z,3.15
2022-08-14T20:44:39.716Z,3.22
2022-08-14T20:47:08.115Z,3.30
2022-08-14T20:49:37.238Z,3.40
2022-08-14T20:52:19.753Z,3.17
2022-08-14T20:54:51.415Z,3.53
2022-08-14T20:57:20.052Z,4.28
2022-08-14T20:59:53.257Z,3.58
2022-08-14T21:02:46.573Z,3.58
2022-08-14T21:05:21.901Z,3.20
2022-08-14T21:08:08.493Z,4.15
2022-08-14T21:10:44.128Z,3.67
2022-08-14T21:13:52.611Z,3.60
2022-08-14T21:16:03.624Z,3.55
2022-08-14T21:18:35.242Z,3.05
2022-08-14T21:21:18.324Z,2.63
2022-08-14T21:23:54.757Z,3.40
2022-08-14T21:26:52.082Z,2.97
2022-08-14T21:29:14.399Z,3.10
2022-08-14T21:31:43.065Z,3.33
2022-08-14T21:34:30.895Z,3.08
2022-08-14T21:37:07.754Z,2.70
2022-08-14T21:39:37.571Z,2.90
2022-08-14T21:42:06.038Z,3.10
2022-08-14T21:44:43.129Z,3.35
2022-08-14T21:47:12.957Z,3.35
2022-08-14T21:49:46.226Z,3.08
2022-08-14T21:52:51.490Z,3.38
2022-08-14T21:55:09.062Z,3.50
2022-08-14T21:58:46.411Z,3.58
2022-08-14T22:00:30.563Z,3.20
2022-08-14T22:03:05.427Z,3.30
2022-08-14T22:05:34.563Z,3.47
2022-08-14T22:08:06.782Z,3.00
2022-08-14T22:10:35.713Z,3.58
2022-08-14T22:13:05.295Z,3.13
2022-08-14T22:15:33.017Z,3.45
2022-08-14T22:18:02.252Z,3.55
2022-08-14T22:20:30.022Z,3.50
2022-08-14T22:23:03.186Z,3.15
2022-08-14T22:25:33.279Z,2.88
2022-08-14T22:28:02.860Z,3.15
2022-08-14T22:30:31.022Z,2.80
2022-08-14T22:33:00.280Z,2.90
2022-08-14T22:35:28.466Z,3.17
2022-08-14T22:38:36.074Z,2.70
2022-08-14T22:41:04.548Z,3.05
2022-08-14T22:43:37.249Z,2.97
2022-08-14T22:46:14.822Z,3.42
2022-08-14T22:48:45.021Z,3.10
2022-08-14T22:51:13.476Z,2.72
2022-08-14T22:53:42.982Z,2.78
2022-08-14T22:56:20.677Z,3.00
2022-08-14T22:58:49.974Z,2.90
2022-08-14T23:01:25.435Z,2.65
2022-08-14T23:04:13.248Z,2.45
2022-08-14T23:07:04.846Z,2.42
2022-08-14T23:09:36.693Z,2.92
2022-08-14T23:12:28.494Z,2.55
2022-08-14T23:14:57.500Z,2.42
2022-08-14T23:17:25.120Z,2.28
2022-08-14T23:19:56.475Z,2.28
2022-08-14T23:22:26.228Z,2.60
2022-08-14T23:24:56.832Z,2.30
2022-08-14T23:28:02.553Z,2.40
2022-08-14T23:30:31.579Z,2.33
2022-08-14T23:33:03.438Z,2.33
2022-08-14T23:35:33.265Z,2.38
2022-08-14T23:38:02.752Z,2.22
2022-08-14T23:40:31.501Z,2.55
2022-08-14T23:43:04.665Z,2.40
2022-08-14T23:50:39.458Z,2.25
2022-08-14T23:53:28.253Z,2.50
2022-08-14T23:56:07.777Z,2.25
2022-08-14T23:58:37.014Z,2.40
